Time;durP1;ratioP1;P1;durP2;ratioP2;P2;SDS_P1;SDS_P2;PMS_P1;PMS_P2;Temp;Humidity;BMP_temperature;BMP_pressure;BME280_temperature;BME280_humidity;BME280_pressure;Samples;Min_cycle;Max_cycle;Signal;HPM_P1;HPM_P2
2023/01/01 00:00:24;;;;;;;18.00;9.98;;;;;;;;;;6055713;23;20016;-82
2023/01/01 00:02:50;;;;;;;17.10;10.40;;;;;;;;;;6093886;23;20014;-83
2023/01/01 00:05:15;;;;;;;14.95;9.65;;;;;;;;;;6069270;23;20024;-84
2023/01/01 00:07:41;;;;;;;9.68;5.72;;;;;;;;;;6069038;23;20025;-82
2023/01/01 00:12:52;;;;;;;11.80;5.82;;;;;;;;;;6097245;23;20077;-83
2023/01/01 00:15:18;;;;;;;18.80;11.02;;;;;;;;;;6093914;23;20386;-83
2023/01/01 00:17:43;;;;;;;10.52;5.43;;;;;;;;;;6083610;23;20010;-83
2023/01/01 00:20:09;;;;;;;24.73;16.23;;;;;;;;;;6069317;23;20465;-84
2023/01/01 00:22:35;;;;;;;6.97;3.30;;;;;;;;;;6093521;23;20390;-82
2023/01/01 00:25:00;;;;;;;10.00;6.07;;;;;;;;;;6093377;23;20088;-82
2023/01/01 00:27:26;;;;;;;7.55;3.58;;;;;;;;;;6069342;23;20108;-84
2023/01/01 00:29:51;;;;;;;5.90;3.55;;;;;;;;;;6070440;23;20827;-84
2023/01/01 00:32:17;;;;;;;7.95;3.13;;;;;;;;;;6069162;23;20028;-81
2023/01/01 00:34:42;;;;;;;6.65;3.45;;;;;;;;;;6070740;23;20017;-82
2023/01/01 00:37:08;;;;;;;6.95;3.55;;;;;;;;;;6069677;23;20022;-82
2023/01/01 00:39:33;;;;;;;5.75;2.97;;;;;;;;;;6070575;23;20081;-82
2023/01/01 00:41:58;;;;;;;5.82;2.67;;;;;;;;;;6069882;23;20439;-83
2023/01/01 00:44:24;;;;;;;6.82;2.30;;;;;;;;;;6094173;23;20081;-81
2023/01/01 00:46:49;;;;;;;6.00;2.58;;;;;;;;;;6093232;23;20025;-86
2023/01/01 00:49:15;;;;;;;5.97;2.38;;;;;;;;;;6070765;23;20356;-83
2023/01/01 00:51:40;;;;;;;5.63;2.33;;;;;;;;;;6093347;23;20039;-83
2023/01/01 00:54:06;;;;;;;5.30;2.20;;;;;;;;;;6056534;23;20707;-82
2023/01/01 00:56:34;;;;;;;4.10;1.90;;;;;;;;;;6093475;23;20040;-82
2023/01/01 00:58:59;;;;;;;5.80;1.83;;;;;;;;;;6093146;23;20069;-83
2023/01/01 01:01:25;;;;;;;5.13;1.77;;;;;;;;;;6068907;23;20022;-83
2023/01/01 01:03:51;;;;;;;5.85;2.05;;;;;;;;;;6070463;23;20013;-83
2023/01/01 01:06:17;;;;;;;6.28;2.33;;;;;;;;;;6065920;23;20044;-83
2023/01/01 01:08:44;;;;;;;4.65;2.05;;;;;;;;;;6069814;23;20018;-82
2023/01/01 01:11:20;;;;;;;;;;;;;;;;;;6069772;23;20331;-84
2023/01/01 01:13:47;;;;;;;3.90;1.83;;;;;;;;;;6070805;23;20226;-86
2023/01/01 01:16:23;;;;;;;5.53;1.95;;;;;;;;;;6070621;23;20085;-84
2023/01/01 01:18:51;;;;;;;4.63;2.10;;;;;;;;;;6095531;23;20022;-83
2023/01/01 01:21:18;;;;;;;4.32;2.03;;;;;;;;;;6094702;23;20014;-81
2023/01/01 01:23:44;;;;;;;5.40;2.40;;;;;;;;;;6093750;23;20438;-82
2023/01/01 01:26:15;;;;;;;4.78;1.90;;;;;;;;;;6091539;23;20036;-83
2023/01/01 01:28:41;;;;;;;6.20;2.13;;;;;;;;;;6068941;23;20017;-83
2023/01/01 01:31:06;;;;;;;5.18;2.42;;;;;;;;;;6067073;23;20495;-81
2023/01/01 01:33:35;;;;;;;8.43;2.13;;;;;;;;;;6092366;23;20041;-81
2023/01/01 01:36:01;;;;;;;3.50;1.67;;;;;;;;;;6068655;23;20081;-81
2023/01/01 01:38:26;;;;;;;8.88;2.03;;;;;;;;;;6069860;23;20017;-79
2023/01/01 01:40:52;;;;;;;4.72;1.80;;;;;;;;;;6068121;23;20038;-79
2023/01/01 01:43:32;;;;;;;4.50;2.15;;;;;;;;;;6093637;23;20014;-80
2023/01/01 01:46:40;;;;;;;4.10;1.75;;;;;;;;;;6117499;23;20049;-79
2023/01/01 01:49:27;;;;;;;4.97;2.00;;;;;;;;;;6092645;23;20022;-81
2023/01/01 01:51:53;;;;;;;6.38;2.15;;;;;;;;;;6069226;23;20337;-81
2023/01/01 01:54:22;;;;;;;7.80;2.20;;;;;;;;;;6069450;23;20093;-81
2023/01/01 01:56:59;;;;;;;6.40;2.30;;;;;;;;;;6068073;23;20015;-80
2023/01/01 01:59:26;;;;;;;;;;;;;;;;;;6071096;23;20014;-82
2023/01/01 02:01:52;;;;;;;5.85;1.98;;;;;;;;;;6068016;23;20399;-81
2023/01/01 02:04:17;;;;;;;5.40;2.10;;;;;;;;;;6069730;23;20014;-80
2023/01/01 02:06:44;;;;;;;5.05;2.30;;;;;;;;;;6068681;23;20022;-81
2023/01/01 02:09:10;;;;;;;7.53;2.55;;;;;;;;;;6057424;23;20014;-80
2023/01/01 02:11:36;;;;;;;6.18;2.40;;;;;;;;;;6092892;23;20018;-80
2023/01/01 02:14:02;;;;;;;5.25;2.20;;;;;;;;;;6069375;23;20474;-83
2023/01/01 02:16:36;;;;;;;6.32;2.50;;;;;;;;;;6065994;23;20335;-81
2023/01/01 02:19:26;;;;;;;9.35;2.80;;;;;;;;;;6116011;23;20018;-81
2023/01/01 02:22:16;;;;;;;5.65;2.47;;;;;;;;;;6069906;23;20018;-80
2023/01/01 02:24:49;;;;;;;5.53;2.60;;;;;;;;;;6071895;23;20376;-79
2023/01/01 02:27:14;;;;;;;5.13;2.55;;;;;;;;;;6118886;23;20021;-79
2023/01/01 02:29:52;;;;;;;7.00;2.92;;;;;;;;;;6094597;23;20018;-80
2023/01/01 02:32:28;;;;;;;7.97;2.95;;;;;;;;;;6068529;23;20466;-80
2023/01/01 02:35:33;;;;;;;6.22;3.00;;;;;;;;;;6070314;23;20006;-81
2023/01/01 02:37:48;;;;;;;5.85;3.20;;;;;;;;;;6076886;23;20009;-81
2023/01/01 02:40:13;;;;;;;6.72;3.28;;;;;;;;;;6066877;23;20022;-81
2023/01/01 02:42:39;;;;;;;6.35;2.85;;;;;;;;;;6069822;23;20093;-81
2023/01/01 02:45:06;;;;;;;5.63;2.80;;;;;;;;;;6094001;23;20041;-81
2023/01/01 02:47:32;;;;;;;8.45;2.72;;;;;;;;;;6071202;23;20014;-81
2023/01/01 02:50:07;;;;;;;5.85;2.50;;;;;;;;;;6093545;23;20018;-82
2023/01/01 02:52:36;;;;;;;5.93;2.70;;;;;;;;;;6092966;23;20018;-82
2023/01/01 02:55:27;;;;;;;5.28;2.80;;;;;;;;;;6094190;23;20112;-81
2023/01/01 03:00:17;;;;;;;4.68;2.28;;;;;;;;;;6118499;23;20025;-81
2023/01/01 03:00:49;;;;;;;7.00;2.63;;;;;;;;;;6090396;23;20010;-81
2023/01/01 03:03:53;;;;;;;6.20;2.80;;;;;;;;;;6069882;23;20029;-82
2023/01/01 03:06:35;;;;;;;5.32;2.38;;;;;;;;;;6091622;23;20026;-81
2023/01/01 03:09:25;;;;;;;8.43;2.50;;;;;;;;;;6081741;23;20014;-80
2023/01/01 03:12:09;;;;;;;5.95;2.15;;;;;;;;;;6070447;23;20033;-80
2023/01/01 03:14:49;;;;;;;5.20;2.65;;;;;;;;;;6071051;23;20442;-81
2023/01/01 03:17:26;;;;;;;4.95;2.30;;;;;;;;;;6095375;23;20053;-81
2023/01/01 03:19:53;;;;;;;5.38;2.20;;;;;;;;;;6095992;23;20077;-82
2023/01/01 03:22:20;;;;;;;7.18;2.50;;;;;;;;;;6093787;23;20525;-82
2023/01/01 03:25:04;;;;;;;5.60;2.10;;;;;;;;;;6047532;23;20704;-82
2023/01/01 03:27:33;;;;;;;6.55;2.58;;;;;;;;;;6095185;23;20046;-81
2023/01/01 03:30:00;;;;;;;6.65;2.63;;;;;;;;;;6071330;23;20010;-82
2023/01/01 03:35:31;;;;;;;7.00;2.10;;;;;;;;;;6098950;23;20072;-82
2023/01/01 03:37:57;;;;;;;6.90;2.10;;;;;;;;;;6121014;23;20010;-82
2023/01/01 03:40:25;;;;;;;5.82;2.30;;;;;;;;;;6094310;23;20014;-83
2023/01/01 03:42:58;;;;;;;4.47;2.17;;;;;;;;;;6068237;23;20010;-83
2023/01/01 03:45:24;;;;;;;5.38;2.28;;;;;;;;;;6069632;23;20014;-83
2023/01/01 03:47:50;;;;;;;8.45;2.20;;;;;;;;;;6095847;23;20026;-84
2023/01/01 03:50:16;;;;;;;4.50;2.17;;;;;;;;;;6069684;23;20022;-83
2023/01/01 03:52:47;;;;;;;4.53;2.22;;;;;;;;;;6071462;23;20334;-81
2023/01/01 03:55:28;;;;;;;5.78;2.17;;;;;;;;;;6094123;23;20450;-83
2023/01/01 03:57:59;;;;;;;4.90;2.20;;;;;;;;;;6095058;23;20351;-83
2023/01/01 04:00:29;;;;;;;5.95;2.40;;;;;;;;;;6094505;23;20022;-81
2023/01/01 04:03:16;;;;;;;5.25;2.40;;;;;;;;;;6070900;23;20010;-81
2023/01/01 04:05:41;;;;;;;5.47;2.50;;;;;;;;;;6069833;23;20034;-81
2023/01/01 04:08:08;;;;;;;4.78;2.33;;;;;;;;;;6094717;23;20041;-81
2023/01/01 04:10:36;;;;;;;5.68;2.63;;;;;;;;;;6094373;23;20010;-83
2023/01/01 04:13:02;;;;;;;;;;;;;;;;;;6095762;23;20018;-85
2023/01/01 04:15:29;;;;;;;5.15;2.40;;;;;;;;;;6070739;23;19915;-82
2023/01/01 04:17:55;;;;;;;;;;;;;;;;;;6070939;23;20543;-82
2023/01/01 04:20:21;;;;;;;5.13;2.53;;;;;;;;;;6069667;23;19908;-82
2023/01/01 04:22:46;;;;;;;5.40;2.72;;;;;;;;;;6033614;23;20014;-82
2023/01/01 04:25:12;;;;;;;10.95;2.75;;;;;;;;;;6043729;23;20030;-82
2023/01/01 04:27:39;;;;;;;6.63;2.30;;;;;;;;;;6059050;23;20022;-80
2023/01/01 04:30:06;;;;;;;5.57;2.28;;;;;;;;;;6095244;23;20042;-81
2023/01/01 04:32:33;;;;;;;6.05;2.72;;;;;;;;;;6070582;23;20021;-82
2023/01/01 04:34:58;;;;;;;12.77;2.95;;;;;;;;;;6071752;23;20539;-80
2023/01/01 04:37:24;;;;;;;6.68;2.65;;;;;;;;;;6068539;23;20013;-80
2023/01/01 04:39:49;;;;;;;4.13;2.00;;;;;;;;;;6070706;23;20018;-82
2023/01/01 04:42:15;;;;;;;8.07;2.50;;;;;;;;;;6069375;23;20017;-80
2023/01/01 04:44:40;;;;;;;5.63;2.38;;;;;;;;;;6070603;23;20018;-82
2023/01/01 04:47:06;;;;;;;6.70;2.33;;;;;;;;;;6118173;23;20028;-82
2023/01/01 04:49:32;;;;;;;6.00;2.47;;;;;;;;;;6070061;23;20022;-83
2023/01/01 04:51:57;;;;;;;11.13;2.80;;;;;;;;;;6091812;23;20016;-82
2023/01/01 04:54:23;;;;;;;6.78;2.70;;;;;;;;;;6093735;23;20010;-82
2023/01/01 04:56:48;;;;;;;5.90;2.33;;;;;;;;;;6092645;23;20025;-81
2023/01/01 04:59:14;;;;;;;8.68;2.60;;;;;;;;;;6093884;23;20026;-82
2023/01/01 05:01:39;;;;;;;7.53;2.33;;;;;;;;;;6067538;23;20082;-82
2023/01/01 05:04:05;;;;;;;7.57;2.13;;;;;;;;;;6080223;23;20466;-82
2023/01/01 05:06:30;;;;;;;5.65;2.65;;;;;;;;;;6093664;23;20462;-82
2023/01/01 05:08:56;;;;;;;6.60;2.47;;;;;;;;;;6093845;23;20584;-82
2023/01/01 05:11:26;;;;;;;4.60;2.00;;;;;;;;;;6092416;23;20065;-82
2023/01/01 05:13:54;;;;;;;5.32;2.22;;;;;;;;;;6069850;23;20024;-82
2023/01/01 05:16:22;;;;;;;4.22;1.90;;;;;;;;;;6068217;23;20017;-83
2023/01/01 05:18:48;;;;;;;5.70;2.15;;;;;;;;;;6069447;23;20013;-82
2023/01/01 05:21:17;;;;;;;4.88;1.90;;;;;;;;;;6068353;23;20053;-82
2023/01/01 05:23:43;;;;;;;6.53;1.75;;;;;;;;;;6048931;23;20066;-82
2023/01/01 05:26:10;;;;;;;4.65;1.85;;;;;;;;;;6052152;23;20032;-82
2023/01/01 05:28:36;;;;;;;4.45;1.92;;;;;;;;;;6070525;23;20014;-82
2023/01/01 05:31:10;;;;;;;5.78;1.90;;;;;;;;;;6068733;23;20343;-84
2023/01/01 05:33:36;;;;;;;4.10;1.88;;;;;;;;;;6058237;23;20025;-82
2023/01/01 05:36:03;;;;;;;4.72;1.77;;;;;;;;;;6069932;23;20025;-85
2023/01/01 05:38:28;;;;;;;5.77;2.10;;;;;;;;;;6071330;23;20084;-83
2023/01/01 05:40:54;;;;;;;4.18;1.60;;;;;;;;;;6068655;23;20084;-83
2023/01/01 05:43:20;;;;;;;4.57;1.88;;;;;;;;;;6070246;23;20046;-83
2023/01/01 05:45:45;;;;;;;3.28;1.42;;;;;;;;;;6092853;23;20044;-82
2023/01/01 05:48:11;;;;;;;5.45;1.35;;;;;;;;;;6069749;23;20097;-83
2023/01/01 05:50:36;;;;;;;4.28;1.60;;;;;;;;;;6069152;23;20092;-82
2023/01/01 05:53:03;;;;;;;4.32;1.65;;;;;;;;;;6069214;23;20462;-85
2023/01/01 05:55:29;;;;;;;5.27;1.70;;;;;;;;;;6069778;23;20449;-82
2023/01/01 05:57:56;;;;;;;5.25;1.63;;;;;;;;;;6070173;23;20085;-82
2023/01/01 06:00:21;;;;;;;3.60;1.40;;;;;;;;;;6068358;23;20025;-82
2023/01/01 06:02:49;;;;;;;4.38;1.80;;;;;;;;;;6069442;23;20795;-82
2023/01/01 06:05:15;;;;;;;4.20;1.60;;;;;;;;;;6054333;23;20458;-82
2023/01/01 06:07:41;;;;;;;4.20;1.40;;;;;;;;;;6035407;23;20029;-82
2023/01/01 06:10:06;;;;;;;3.40;1.40;;;;;;;;;;6069088;23;20024;-82
2023/01/01 06:12:32;;;;;;;4.50;1.70;;;;;;;;;;6091017;23;20017;-82
2023/01/01 06:14:57;;;;;;;5.25;1.63;;;;;;;;;;6070730;23;20037;-83
2023/01/01 06:17:23;;;;;;;4.45;1.63;;;;;;;;;;6092614;23;20036;-82
2023/01/01 06:19:48;;;;;;;3.63;1.55;;;;;;;;;;6067340;23;20009;-83
2023/01/01 06:22:14;;;;;;;5.10;1.60;;;;;;;;;;6091016;23;20497;-83
2023/01/01 06:24:39;;;;;;;4.93;1.70;;;;;;;;;;6092472;23;20093;-82
2023/01/01 06:27:05;;;;;;;4.90;1.80;;;;;;;;;;6093224;23;20022;-83
2023/01/01 06:29:31;;;;;;;5.40;1.70;;;;;;;;;;6070911;23;20437;-82
2023/01/01 06:31:57;;;;;;;3.08;1.45;;;;;;;;;;6093179;23;20089;-82
2023/01/01 06:34:22;;;;;;;5.20;1.63;;;;;;;;;;6071073;23;20040;-81
2023/01/01 06:36:48;;;;;;;6.03;1.90;;;;;;;;;;6092907;23;20010;-83
2023/01/01 06:39:13;;;;;;;4.55;1.80;;;;;;;;;;6045311;23;20026;-81
2023/01/01 06:41:38;;;;;;;3.92;1.60;;;;;;;;;;6092578;23;20017;-82
2023/01/01 06:44:04;;;;;;;4.03;1.60;;;;;;;;;;6070802;23;20080;-82
2023/01/01 06:46:33;;;;;;;3.85;1.40;;;;;;;;;;6119605;23;20478;-82
2023/01/01 06:49:02;;;;;;;5.28;1.70;;;;;;;;;;6096492;23;20112;-82
2023/01/01 06:51:30;;;;;;;5.32;1.50;;;;;;;;;;6070654;23;20354;-82
2023/01/01 06:53:58;;;;;;;4.43;1.95;;;;;;;;;;6093194;23;20013;-87
2023/01/01 06:56:24;;;;;;;4.38;1.90;;;;;;;;;;6068678;23;20358;-86
2023/01/01 06:58:49;;;;;;;7.95;2.08;;;;;;;;;;6069995;23;20010;-86
2023/01/01 07:01:19;;;;;;;5.18;1.85;;;;;;;;;;6068826;23;20093;-88
2023/01/01 07:03:56;;;;;;;3.63;1.80;;;;;;;;;;6070412;23;20048;-89
2023/01/01 07:06:22;;;;;;;4.40;1.80;;;;;;;;;;6068610;23;20026;-88
2023/01/01 07:08:48;;;;;;;4.78;1.85;;;;;;;;;;6070034;23;20073;-90
2023/01/01 07:11:14;;;;;;;6.30;1.70;;;;;;;;;;6069234;23;20018;-88
2023/01/01 07:13:39;;;;;;;5.90;2.00;;;;;;;;;;6069658;23;20398;-87
2023/01/01 07:16:05;;;;;;;4.32;2.08;;;;;;;;;;6068757;23;20014;-89
2023/01/01 07:18:30;;;;;;;5.25;1.80;;;;;;;;;;6070159;23;20041;-89
2023/01/01 07:21:06;;;;;;;4.55;1.67;;;;;;;;;;6069329;23;20020;-88
2023/01/01 07:23:33;;;;;;;4.68;1.80;;;;;;;;;;6070304;23;20037;-88
2023/01/01 07:25:59;;;;;;;5.05;1.80;;;;;;;;;;6093292;23;20076;-86
2023/01/01 07:28:25;;;;;;;6.20;2.10;;;;;;;;;;6068633;23;20378;-87
2023/01/01 07:30:52;;;;;;;5.03;2.22;;;;;;;;;;6069126;23;20350;-88
2023/01/01 07:33:19;;;;;;;5.55;1.95;;;;;;;;;;6069816;23;20394;-87
2023/01/01 07:35:44;;;;;;;4.33;1.83;;;;;;;;;;6093549;23;20025;-90
2023/01/01 07:38:10;;;;;;;6.80;2.38;;;;;;;;;;6093142;23;20013;-86
2023/01/01 07:40:36;;;;;;;6.93;2.20;;;;;;;;;;6068707;23;20053;-87
2023/01/01 07:43:02;;;;;;;5.15;2.15;;;;;;;;;;6094543;23;20018;-87
2023/01/01 07:45:27;;;;;;;5.75;2.15;;;;;;;;;;6067921;23;20629;-87
2023/01/01 07:47:54;;;;;;;6.43;2.35;;;;;;;;;;6094314;23;20006;-87
2023/01/01 07:50:21;;;;;;;5.43;2.30;;;;;;;;;;6068589;23;20100;-88
2023/01/01 07:53:06;;;;;;;3.73;1.93;;;;;;;;;;6070226;23;20018;-88
2023/01/01 07:55:35;;;;;;;6.03;2.05;;;;;;;;;;5976677;23;20363;-90
2023/01/01 07:58:00;;;;;;;4.85;2.35;;;;;;;;;;5955539;23;20028;-88
2023/01/01 08:00:26;;;;;;;5.32;2.38;;;;;;;;;;5952932;23;20024;-86
2023/01/01 08:02:52;;;;;;;6.32;2.30;;;;;;;;;;5978169;23;20455;-87
2023/01/01 08:05:17;;;;;;;4.35;1.95;;;;;;;;;;5953082;23;20049;-88
2023/01/01 08:07:46;;;;;;;5.07;2.03;;;;;;;;;;5929458;24;20035;-89
2023/01/01 08:10:14;;;;;;;5.75;2.13;;;;;;;;;;5926784;24;20032;-87
2023/01/01 08:12:39;;;;;;;5.20;2.42;;;;;;;;;;5949692;24;20069;-86
2023/01/01 08:15:05;;;;;;;7.50;2.50;;;;;;;;;;5926788;24;20391;-88
2023/01/01 08:17:31;;;;;;;5.05;2.30;;;;;;;;;;5949670;24;20054;-89
2023/01/01 08:19:56;;;;;;;5.50;2.50;;;;;;;;;;5927140;24;20650;-86
2023/01/01 08:22:22;;;;;;;6.60;2.20;;;;;;;;;;5924225;24;20027;-85
2023/01/01 08:24:47;;;;;;;4.97;2.38;;;;;;;;;;5926980;24;20402;-87
2023/01/01 08:27:13;;;;;;;5.45;2.53;;;;;;;;;;5948903;24;20036;-84
2023/01/01 08:29:39;;;;;;;7.28;2.08;;;;;;;;;;5949469;24;20023;-87
2023/01/01 08:32:04;;;;;;;5.65;2.30;;;;;;;;;;5960312;23;20093;-86
2023/01/01 08:34:29;;;;;;;5.15;2.47;;;;;;;;;;6040936;23;20017;-87
2023/01/01 08:36:55;;;;;;;5.10;2.22;;;;;;;;;;6039540;23;20085;-89
2023/01/01 08:39:20;;;;;;;4.20;1.92;;;;;;;;;;6040722;23;20025;-86
2023/01/01 08:41:45;;;;;;;5.95;2.30;;;;;;;;;;6039620;23;20011;-85
2023/01/01 08:44:11;;;;;;;9.00;2.13;;;;;;;;;;6040050;23;20018;-88
2023/01/01 08:46:36;;;;;;;5.28;2.10;;;;;;;;;;6038677;23;20752;-86
2023/01/01 08:49:02;;;;;;;5.97;2.45;;;;;;;;;;6041126;23;20062;-88
2023/01/01 08:51:27;;;;;;;3.30;1.80;;;;;;;;;;6039180;23;20056;-85
2023/01/01 08:53:52;;;;;;;4.43;1.90;;;;;;;;;;6040220;23;20018;-85
2023/01/01 08:56:38;;;;;;;5.30;2.05;;;;;;;;;;6039538;23;20482;-87
2023/01/01 08:59:04;;;;;;;6.60;2.25;;;;;;;;;;5949522;24;20103;-88
2023/01/01 09:01:29;;;;;;;6.57;2.20;;;;;;;;;;5926401;24;20055;-86
2023/01/01 09:03:55;;;;;;;4.82;2.30;;;;;;;;;;5926487;24;20016;-85
2023/01/01 09:06:20;;;;;;;4.93;2.20;;;;;;;;;;5958491;23;20031;-84
2023/01/01 09:08:46;;;;;;;5.43;2.05;;;;;;;;;;5977218;23;20334;-86
2023/01/01 09:11:25;;;;;;;5.68;2.28;;;;;;;;;;5976574;23;20094;-88
2023/01/01 09:13:51;;;;;;;5.68;2.00;;;;;;;;;;5977280;23;20027;-86
2023/01/01 09:16:17;;;;;;;4.25;1.83;;;;;;;;;;5975893;23;20023;-86
2023/01/01 09:18:42;;;;;;;5.85;2.40;;;;;;;;;;5966078;23;20027;-86
2023/01/01 09:21:07;;;;;;;4.47;2.03;;;;;;;;;;5976661;23;20019;-87
2023/01/01 09:23:33;;;;;;;4.63;2.13;;;;;;;;;;5977414;23;20091;-86
2023/01/01 09:26:06;;;;;;;4.88;2.08;;;;;;;;;;5976615;23;20035;-89
2023/01/01 09:28:31;;;;;;;7.40;2.20;;;;;;;;;;5954344;23;20016;-86
2023/01/01 09:30:57;;;;;;;4.60;2.05;;;;;;;;;;5952674;23;20018;-87
2023/01/01 09:33:22;;;;;;;4.55;1.88;;;;;;;;;;5977445;23;20024;-88
2023/01/01 09:35:48;;;;;;;5.97;2.40;;;;;;;;;;6021076;23;20036;-89
2023/01/01 09:38:13;;;;;;;5.78;2.25;;;;;;;;;;6069032;23;20044;-86
2023/01/01 09:40:50;;;;;;;4.85;2.00;;;;;;;;;;6067335;23;20019;-89
2023/01/01 09:43:25;;;;;;;6.63;2.33;;;;;;;;;;6092724;23;20046;-88
2023/01/01 09:45:59;;;;;;;4.75;2.10;;;;;;;;;;6090646;23;20018;-87
2023/01/01 09:48:26;;;;;;;5.60;1.90;;;;;;;;;;6092511;23;20343;-86
2023/01/01 09:50:52;;;;;;;5.22;2.08;;;;;;;;;;6091119;23;20018;-88
2023/01/01 09:53:25;;;;;;;6.43;2.00;;;;;;;;;;6068658;23;20425;-90
2023/01/01 09:56:02;;;;;;;4.63;1.90;;;;;;;;;;6067110;23;20356;-88
2023/01/01 09:58:36;;;;;;;3.90;1.70;;;;;;;;;;6091076;23;20350;-84
2023/01/01 10:01:29;;;;;;;4.88;1.52;;;;;;;;;;6067505;23;20277;-86
2023/01/01 10:04:03;;;;;;;4.25;1.73;;;;;;;;;;6091877;23;20014;-89
2023/01/01 10:06:31;;;;;;;4.97;1.85;;;;;;;;;;6091634;23;20032;-88
2023/01/01 10:09:12;;;;;;;4.43;1.63;;;;;;;;;;6068146;23;20014;-87
2023/01/01 10:11:40;;;;;;;4.53;1.85;;;;;;;;;;6091300;23;20406;-89
2023/01/01 10:14:21;;;;;;;4.63;2.10;;;;;;;;;;6092249;23;20024;-92
2023/01/01 10:16:49;;;;;;;4.93;1.90;;;;;;;;;;6067573;23;20021;-88
2023/01/01 10:19:44;;;;;;;3.70;1.83;;;;;;;;;;6068755;23;20446;-91
2023/01/01 10:22:17;;;;;;;4.95;1.75;;;;;;;;;;6090580;23;20450;-87
2023/01/01 10:24:57;;;;;;;4.97;1.58;;;;;;;;;;6068238;23;20021;-90
2023/01/01 10:27:27;;;;;;;3.70;1.40;;;;;;;;;;6043655;23;21921;-88
2023/01/01 10:29:52;;;;;;;4.97;1.90;;;;;;;;;;6078472;23;20013;-86
2023/01/01 10:32:35;;;;;;;5.05;1.40;;;;;;;;;;6090090;23;20582;-87
2023/01/01 10:35:13;;;;;;;4.90;1.77;;;;;;;;;;6091388;23;20029;-87
2023/01/01 10:37:39;;;;;;;3.97;1.30;;;;;;;;;;6066856;23;20042;-88
2023/01/01 10:40:17;;;;;;;4.40;1.60;;;;;;;;;;6092583;23;20141;-89
2023/01/01 10:42:47;;;;;;;5.60;1.80;;;;;;;;;;6092211;23;20446;-89
2023/01/01 10:45:15;;;;;;;5.15;1.70;;;;;;;;;;6065658;23;20022;-86
2023/01/01 10:47:40;;;;;;;;;;;;;;;;;;6069190;23;20018;-87
2023/01/01 10:50:08;;;;;;;5.13;1.48;;;;;;;;;;6066700;23;19916;-87
2023/01/01 10:52:37;;;;;;;4.82;1.77;;;;;;;;;;6069115;23;20458;-88
2023/01/01 10:55:04;;;;;;;3.55;1.70;;;;;;;;;;6091246;23;20302;-84
2023/01/01 10:57:33;;;;;;;5.10;1.50;;;;;;;;;;6068208;23;20017;-88
2023/01/01 11:00:21;;;;;;;5.53;1.55;;;;;;;;;;6067765;23;20014;-87
2023/01/01 11:02:49;;;;;;;4.88;1.70;;;;;;;;;;6072830;23;20489;-88
2023/01/01 11:05:18;;;;;;;3.45;1.50;;;;;;;;;;6066996;23;20018;-85
2023/01/01 11:07:43;;;;;;;5.93;1.73;;;;;;;;;;6067564;23;20057;-88
2023/01/01 11:10:18;;;;;;;4.18;1.40;;;;;;;;;;6090787;23;20041;-84
2023/01/01 11:12:44;;;;;;;4.40;1.40;;;;;;;;;;6068068;23;20018;-88
2023/01/01 11:15:20;;;;;;;4.03;1.50;;;;;;;;;;6067010;23;20364;-85
2023/01/01 11:17:46;;;;;;;3.60;1.20;;;;;;;;;;6068193;23;20447;-86
2023/01/01 11:20:17;;;;;;;4.97;1.38;;;;;;;;;;6067286;23;20261;-88
2023/01/01 11:22:46;;;;;;;4.85;1.60;;;;;;;;;;6067898;23;20024;-90
2023/01/01 11:25:22;;;;;;;3.83;1.48;;;;;;;;;;6067162;23;20397;-86
2023/01/01 11:27:48;;;;;;;5.30;1.40;;;;;;;;;;6091752;23;20125;-85
2023/01/01 11:30:23;;;;;;;3.83;1.33;;;;;;;;;;6068159;23;20096;-83
2023/01/01 11:32:51;;;;;;;4.05;1.45;;;;;;;;;;6093482;23;20025;-84
2023/01/01 11:35:22;;;;;;;3.70;1.20;;;;;;;;;;6067903;23;20112;-83
2023/01/01 11:37:49;;;;;;;4.00;1.48;;;;;;;;;;6069530;23;20018;-84
2023/01/01 11:40:44;;;;;;;4.97;1.63;;;;;;;;;;6097626;23;20022;-84
2023/01/01 11:43:16;;;;;;;3.88;1.30;;;;;;;;;;6120656;23;20101;-89
2023/01/01 11:45:42;;;;;;;4.25;1.25;;;;;;;;;;6074039;23;20447;-89
2023/01/01 11:48:21;;;;;;;4.63;1.30;;;;;;;;;;6076373;23;20029;-87
2023/01/01 11:50:59;;;;;;;2.67;1.10;;;;;;;;;;6075100;23;20029;-89
2023/01/01 11:53:24;;;;;;;4.80;1.40;;;;;;;;;;6073533;23;20537;-87
2023/01/01 11:56:04;;;;;;;3.53;1.30;;;;;;;;;;6098205;23;20010;-87
2023/01/01 11:58:58;;;;;;;4.13;1.50;;;;;;;;;;6122029;23;20428;-90
2023/01/01 12:01:26;;;;;;;4.72;1.30;;;;;;;;;;6097071;23;20465;-87
2023/01/01 12:03:54;;;;;;;3.40;1.27;;;;;;;;;;6098032;23;20057;-87
2023/01/01 12:06:25;;;;;;;5.13;1.52;;;;;;;;;;6096665;23;20093;-86
2023/01/01 12:08:54;;;;;;;3.40;1.30;;;;;;;;;;6098733;23;20476;-89
2023/01/01 12:11:25;;;;;;;4.85;1.60;;;;;;;;;;6097970;23;20017;-88
2023/01/01 12:13:56;;;;;;;3.35;1.35;;;;;;;;;;6097801;23;20459;-86
2023/01/01 12:16:47;;;;;;;4.88;1.40;;;;;;;;;;6068228;23;20339;-87
2023/01/01 12:20:00;;;;;;;3.55;1.52;;;;;;;;;;6085002;23;20026;-89
2023/01/01 12:22:25;;;;;;;3.97;1.30;;;;;;;;;;6108284;23;20020;-86
2023/01/01 12:24:51;;;;;;;4.85;1.23;;;;;;;;;;6067911;23;20344;-81
2023/01/01 12:27:30;;;;;;;4.03;1.20;;;;;;;;;;6067787;23;20115;-81
2023/01/01 12:30:10;;;;;;;6.22;1.52;;;;;;;;;;6118291;23;20014;-82
2023/01/01 12:33:02;;;;;;;4.07;1.52;;;;;;;;;;6090366;23;20010;-82
2023/01/01 12:35:52;;;;;;;8.00;2.60;;;;;;;;;;6092369;23;20025;-82
2023/01/01 12:38:22;;;;;;;4.35;1.63;;;;;;;;;;6092924;23;20024;-81
2023/01/01 12:40:54;;;;;;;5.75;1.70;;;;;;;;;;6067272;23;20398;-82
2023/01/01 12:43:39;;;;;;;5.00;1.50;;;;;;;;;;6095234;23;20068;-81
2023/01/01 12:46:33;;;;;;;4.60;1.70;;;;;;;;;;6079897;23;20033;-81
2023/01/01 12:49:32;;;;;;;5.45;1.65;;;;;;;;;;6062103;23;20380;-84
2023/01/01 12:52:06;;;;;;;4.25;1.60;;;;;;;;;;6091193;23;20416;-81
2023/01/01 12:54:50;;;;;;;2.47;1.20;;;;;;;;;;6087110;23;20479;-82
2023/01/01 12:57:22;;;;;;;4.45;1.15;;;;;;;;;;6022097;23;20155;-82
2023/01/01 12:59:48;;;;;;;4.55;1.20;;;;;;;;;;6092315;23;20014;-84
2023/01/01 13:02:22;;;;;;;4.07;1.60;;;;;;;;;;6045209;23;20470;-84
2023/01/01 13:04:52;;;;;;;6.15;1.63;;;;;;;;;;6054409;23;20014;-85
2023/01/01 13:07:25;;;;;;;3.30;1.48;;;;;;;;;;6067262;23;20056;-82
2023/01/01 13:09:52;;;;;;;4.10;1.30;;;;;;;;;;6068471;23;20041;-85
2023/01/01 13:12:20;;;;;;;2.88;1.30;;;;;;;;;;6067459;23;20089;-83
2023/01/01 13:14:48;;;;;;;3.13;1.30;;;;;;;;;;6068719;23;20014;-84
2023/01/01 13:17:21;;;;;;;5.85;1.75;;;;;;;;;;6091526;23;20017;-84
2023/01/01 13:19:48;;;;;;;4.35;1.58;;;;;;;;;;6091780;23;20277;-81
2023/01/01 13:22:25;;;;;;;5.05;1.45;;;;;;;;;;6068282;23;20064;-83
2023/01/01 13:25:12;;;;;;;3.10;1.38;;;;;;;;;;6092596;23;20025;-85
2023/01/01 13:27:56;;;;;;;3.25;1.30;;;;;;;;;;6117017;23;20022;-82
2023/01/01 13:30:37;;;;;;;4.43;1.50;;;;;;;;;;6090930;23;20061;-84
2023/01/01 13:33:28;;;;;;;7.72;1.88;;;;;;;;;;6091965;23;20454;-81
2023/01/01 13:36:11;;;;;;;6.53;1.80;;;;;;;;;;6094270;23;20363;-81
2023/01/01 13:38:52;;;;;;;7.45;1.50;;;;;;;;;;6092708;23;20029;-83
2023/01/01 13:41:27;;;;;;;5.10;1.52;;;;;;;;;;6061540;23;20399;-81
2023/01/01 13:44:16;;;;;;;3.28;1.40;;;;;;;;;;6084941;23;20018;-82
2023/01/01 13:46:50;;;;;;;5.18;1.60;;;;;;;;;;6091761;23;20354;-83
2023/01/01 13:49:38;;;;;;;4.00;1.80;;;;;;;;;;6092901;23;20145;-84
2023/01/01 13:52:54;;;;;;;5.82;1.45;;;;;;;;;;6067500;23;20414;-85
2023/01/01 13:55:50;;;;;;;6.07;1.57;;;;;;;;;;6078977;23;20021;-85
2023/01/01 13:58:36;;;;;;;3.05;1.20;;;;;;;;;;6092642;23;20101;-84
2023/01/01 14:01:11;;;;;;;5.72;1.42;;;;;;;;;;6092763;23;20458;-81
2023/01/01 14:03:45;;;;;;;3.40;1.45;;;;;;;;;;6118853;23;20398;-80
2023/01/01 14:06:13;;;;;;;7.47;1.50;;;;;;;;;;6067017;23;20101;-81
2023/01/01 14:08:39;;;;;;;4.10;1.45;;;;;;;;;;6091825;23;20024;-79
2023/01/01 14:11:19;;;;;;;6.20;1.45;;;;;;;;;;6067137;23;20350;-80
2023/01/01 14:13:46;;;;;;;6.30;1.55;;;;;;;;;;6067435;23;20017;-81
2023/01/01 14:16:15;;;;;;;4.45;1.60;;;;;;;;;;6066745;23;20018;-81
2023/01/01 14:18:43;;;;;;;5.20;1.67;;;;;;;;;;6091731;23;20052;-83
2023/01/01 14:21:13;;;;;;;4.15;1.27;;;;;;;;;;6091508;23;20466;-81
2023/01/01 14:23:42;;;;;;;7.68;1.77;;;;;;;;;;6067715;23;20005;-81
2023/01/01 14:26:14;;;;;;;5.80;1.80;;;;;;;;;;6067007;23;20482;-80
2023/01/01 14:28:40;;;;;;;4.30;1.55;;;;;;;;;;6091601;23;20010;-81
2023/01/01 14:31:11;;;;;;;4.30;1.67;;;;;;;;;;6066038;23;20455;-82
2023/01/01 14:33:37;;;;;;;6.13;1.60;;;;;;;;;;6091256;23;20018;-80
2023/01/01 14:36:05;;;;;;;4.40;1.67;;;;;;;;;;6066492;23;20028;-81
2023/01/01 14:38:33;;;;;;;5.68;1.90;;;;;;;;;;6090040;23;20010;-80
2023/01/01 14:41:23;;;;;;;5.30;1.95;;;;;;;;;;6090326;23;20014;-81
2023/01/01 14:43:51;;;;;;;5.53;1.77;;;;;;;;;;6089729;23;20077;-81
2023/01/01 14:46:20;;;;;;;;;;;;;;;;;;6067496;23;20088;-80
2023/01/01 14:48:47;;;;;;;4.32;1.98;;;;;;;;;;6067072;23;20396;-81
2023/01/01 14:51:14;;;;;;;7.45;2.08;;;;;;;;;;6090154;23;20022;-81
2023/01/01 14:53:40;;;;;;;8.63;1.95;;;;;;;;;;6066246;23;20092;-81
2023/01/01 14:56:06;;;;;;;5.55;1.90;;;;;;;;;;6065817;23;20021;-81
2023/01/01 14:58:32;;;;;;;5.85;1.80;;;;;;;;;;6066667;23;20014;-80
2023/01/01 15:01:15;;;;;;;5.63;2.05;;;;;;;;;;6066567;23;20421;-81
2023/01/01 15:03:53;;;;;;;6.32;1.90;;;;;;;;;;6090854;23;20010;-81
2023/01/01 15:06:19;;;;;;;7.00;2.10;;;;;;;;;;6067465;23;20036;-81
2023/01/01 15:08:49;;;;;;;5.55;2.00;;;;;;;;;;6067306;23;20367;-80